createdAt,value
2018-04-02T00:01:13.138Z,85.90
2018-04-02T00:03:39.749Z,85.80
2018-04-02T00:06:06.318Z,86.00
2018-04-02T00:08:32.883Z,85.90
2018-04-02T00:10:59.481Z,86.20
2018-04-02T00:13:26.413Z,86.40
2018-04-02T00:15:52.981Z,86.40
2018-04-02T00:18:19.526Z,86.80
2018-04-02T00:20:46.487Z,86.60
2018-04-02T00:23:13.086Z,86.60
2018-04-02T00:25:39.634Z,85.90
2018-04-02T00:28:06.206Z,86.30
2018-04-02T00:30:32.774Z,86.40
2018-04-02T00:32:59.758Z,86.30
2018-04-02T00:35:26.324Z,86.30
2018-04-02T00:37:52.904Z,86.40
2018-04-02T00:40:19.441Z,86.80
2018-04-02T00:42:46.007Z,86.80
2018-04-02T00:45:12.570Z,87.20
2018-04-02T00:47:39.109Z,87.30
2018-04-02T00:50:06.057Z,87.90
2018-04-02T00:52:32.989Z,88.10
2018-04-02T00:54:59.529Z,88.10
2018-04-02T00:57:26.102Z,88.10
2018-04-02T00:59:53.125Z,88.10
2018-04-02T01:02:19.657Z,88.10
2018-04-02T01:04:46.255Z,87.90
2018-04-02T01:07:13.217Z,88.00
2018-04-02T01:09:40.135Z,87.90
2018-04-02T01:12:06.701Z,87.90
2018-04-02T01:14:33.270Z,87.90
2018-04-02T01:17:00.162Z,88.00
2018-04-02T01:19:26.731Z,88.00
2018-04-02T01:21:53.294Z,88.10
2018-04-02T01:24:19.817Z,88.20
2018-04-02T01:26:46.403Z,88.20
2018-04-02T01:29:13.015Z,88.10
2018-04-02T01:31:39.545Z,88.00
2018-04-02T01:34:06.106Z,88.00
2018-04-02T01:36:32.677Z,87.90
2018-04-02T01:38:59.217Z,87.90
2018-04-02T01:41:25.793Z,87.90
2018-04-02T01:43:52.738Z,87.80
2018-04-02T01:46:19.290Z,87.80
2018-04-02T01:48:45.852Z,87.90
2018-04-02T01:51:13.076Z,87.60
2018-04-02T01:53:42.191Z,87.60
2018-04-02T01:56:08.758Z,87.70
2018-04-02T01:58:35.325Z,87.60
2018-04-02T02:01:02.226Z,87.50
2018-04-02T02:03:28.809Z,87.50
2018-04-02T02:05:55.462Z,87.50
2018-04-02T02:08:22.370Z,87.80
2018-04-02T02:10:48.934Z,87.80
2018-04-02T02:13:15.520Z,88.10
2018-04-02T02:15:42.425Z,88.10
2018-04-02T02:18:08.982Z,88.10
2018-04-02T02:20:35.553Z,88.10
2018-04-02T02:23:02.179Z,88.20
2018-04-02T02:25:28.806Z,88.30
2018-04-02T02:27:55.482Z,88.40
2018-04-02T02:30:22.011Z,88.20
2018-04-02T02:32:48.585Z,87.60
2018-04-02T02:35:15.153Z,87.70
2018-04-02T02:37:42.065Z,87.90
2018-04-02T02:40:08.637Z,87.90
2018-04-02T02:42:35.223Z,87.80
2018-04-02T02:45:01.813Z,87.80
2018-04-02T02:47:28.458Z,88.10
2018-04-02T02:49:55.030Z,87.90
2018-04-02T02:52:21.569Z,88.10
2018-04-02T02:54:48.143Z,88.70
2018-04-02T02:57:15.171Z,89.00
2018-04-02T02:59:41.697Z,89.00
2018-04-02T03:02:08.266Z,89.00
2018-04-02T03:04:34.897Z,89.00
2018-04-02T03:07:01.423Z,89.00
2018-04-02T03:09:27.984Z,89.00
2018-04-02T03:11:54.559Z,89.00
2018-04-02T03:14:21.113Z,89.40
2018-04-02T03:16:47.681Z,89.40
2018-04-02T03:19:14.619Z,89.20
2018-04-02T03:21:41.152Z,89.20
2018-04-02T03:24:07.713Z,89.20
2018-04-02T03:26:34.275Z,89.60
2018-04-02T03:29:00.840Z,89.50
2018-04-02T03:31:27.779Z,89.90
2018-04-02T03:33:54.778Z,89.90
2018-04-02T03:36:21.309Z,89.90
2018-04-02T03:38:47.901Z,90.20
2018-04-02T03:41:14.467Z,90.00
2018-04-02T03:43:41.010Z,89.90
2018-04-02T03:46:07.595Z,90.00
2018-04-02T03:48:34.171Z,90.40
2018-04-02T03:51:00.699Z,90.00
2018-04-02T03:53:27.305Z,89.90
2018-04-02T03:55:53.893Z,89.30
2018-04-02T03:58:20.440Z,89.40
2018-04-02T04:00:47.006Z,90.00
2018-04-02T04:03:13.649Z,90.10
2018-04-02T04:05:40.210Z,90.30
2018-04-02T04:08:06.785Z,90.60
2018-04-02T04:10:33.377Z,90.50
2018-04-02T04:12:59.898Z,90.30
2018-04-02T04:15:26.849Z,90.00
2018-04-02T04:17:54.364Z,90.00
2018-04-02T04:20:20.902Z,89.70
2018-04-02T04:22:47.461Z,90.40
2018-04-02T04:25:14.049Z,90.60
2018-04-02T04:27:40.585Z,90.50
2018-04-02T04:30:07.150Z,90.40
2018-04-02T04:32:33.749Z,90.40
2018-04-02T04:35:00.306Z,90.40
2018-04-02T04:37:26.870Z,90.50
2018-04-02T04:39:53.430Z,90.30
2018-04-02T04:42:19.958Z,90.00
2018-04-02T04:44:46.523Z,89.60
2018-04-02T04:47:13.094Z,90.20
2018-04-02T04:49:39.993Z,90.20
2018-04-02T04:52:06.555Z,90.20
2018-04-02T04:54:33.205Z,90.70
2018-04-02T04:56:59.737Z,91.20
2018-04-02T04:59:26.340Z,91.30
2018-04-02T05:01:53.289Z,91.00
2018-04-02T05:04:19.843Z,91.00
2018-04-02T05:06:46.813Z,90.40
2018-04-02T05:09:13.741Z,90.40
2018-04-02T05:11:40.317Z,90.40
2018-04-02T05:14:07.262Z,89.70
2018-04-02T05:16:34.205Z,90.00
2018-04-02T05:19:01.133Z,90.00
2018-04-02T05:21:27.710Z,90.00
2018-04-02T05:23:54.293Z,89.80
2018-04-02T05:26:20.914Z,89.90
2018-04-02T05:28:47.482Z,89.60
2018-04-02T05:31:14.427Z,90.00
2018-04-02T05:33:41.334Z,90.30
2018-04-02T05:36:07.902Z,90.30
2018-04-02T05:38:34.461Z,90.00
2018-04-02T05:41:01.017Z,90.50
2018-04-02T05:43:27.983Z,90.70
2018-04-02T05:45:54.934Z,89.80
2018-04-02T05:48:21.840Z,88.80
2018-04-02T05:50:48.426Z,88.80
2018-04-02T05:53:15.370Z,87.50
2018-04-02T05:55:41.905Z,87.50
2018-04-02T05:58:08.509Z,86.80
2018-04-02T06:00:35.072Z,85.60
2018-04-02T06:03:01.608Z,85.30
2018-04-02T06:05:28.269Z,84.70
2018-04-02T06:07:54.838Z,84.30
2018-04-02T06:10:21.387Z,83.10
2018-04-02T06:12:47.948Z,83.10
2018-04-02T06:15:14.905Z,83.30
2018-04-02T06:17:41.438Z,83.30
2018-04-02T06:20:08.009Z,82.60
2018-04-02T06:22:34.569Z,81.40
2018-04-02T06:25:01.475Z,81.90
2018-04-02T06:27:28.056Z,81.90
2018-04-02T06:29:54.620Z,81.90
2018-04-02T06:32:21.544Z,80.80
2018-04-02T06:34:48.513Z,80.70
2018-04-02T06:37:15.094Z,80.70
2018-04-02T06:39:41.996Z,77.90
2018-04-02T06:42:08.574Z,77.90
2018-04-02T06:44:35.154Z,77.50
2018-04-02T06:47:01.697Z,77.20
2018-04-02T06:49:28.269Z,77.20
2018-04-02T06:51:54.832Z,76.80
2018-04-02T06:54:21.370Z,77.40
2018-04-02T06:56:47.946Z,77.50
2018-04-02T06:59:14.514Z,76.90
2018-04-02T07:01:41.421Z,74.60
2018-04-02T07:04:07.990Z,74.60
2018-04-02T07:06:34.590Z,75.00
2018-04-02T07:09:01.181Z,73.80
2018-04-02T07:11:27.742Z,73.20
2018-04-02T07:13:54.305Z,72.30
2018-04-02T07:16:21.209Z,72.40
2018-04-02T07:18:47.778Z,72.40
2018-04-02T07:21:14.374Z,70.40
2018-04-02T07:23:40.962Z,69.90
2018-04-02T07:26:07.529Z,67.80
2018-04-02T07:28:34.110Z,67.70
2018-04-02T07:31:01.031Z,68.70
2018-04-02T07:33:27.603Z,68.70
2018-04-02T07:35:54.562Z,67.20
2018-04-02T07:38:21.473Z,67.30
2018-04-02T07:40:48.042Z,67.30
2018-04-02T07:43:14.784Z,68.70
2018-04-02T07:45:41.764Z,66.80
2018-04-02T07:48:08.785Z,66.90
2018-04-02T07:50:35.455Z,67.00
2018-04-02T07:53:02.018Z,66.70
2018-04-02T07:55:28.585Z,67.10
2018-04-02T07:57:55.166Z,66.00
2018-04-02T08:00:21.748Z,64.30
2018-04-02T08:02:48.327Z,64.40
2018-04-02T08:05:15.002Z,64.70
2018-04-02T08:07:41.595Z,63.90
2018-04-02T08:10:08.178Z,64.20
2018-04-02T08:12:35.162Z,66.50
2018-04-02T08:15:01.706Z,66.50
2018-04-02T08:17:28.317Z,65.70
2018-04-02T08:19:54.935Z,64.90
2018-04-02T08:22:21.534Z,65.60
2018-04-02T08:24:48.133Z,65.30
2018-04-02T08:27:14.698Z,65.50
2018-04-02T08:29:41.253Z,64.40
2018-04-02T08:32:08.210Z,65.70
2018-04-02T08:34:35.145Z,65.30
2018-04-02T08:37:01.683Z,65.30
2018-04-02T08:39:28.292Z,64.90
2018-04-02T08:41:55.202Z,64.70
2018-04-02T08:44:21.788Z,64.20
2018-04-02T08:46:48.368Z,63.80
2018-04-02T08:49:14.957Z,62.40
2018-04-02T08:51:41.501Z,62.70
2018-04-02T08:54:08.478Z,64.00
2018-04-02T08:56:35.469Z,62.30
2018-04-02T08:59:02.049Z,62.20
2018-04-02T09:01:28.690Z,61.30
2018-04-02T09:03:55.677Z,61.40
2018-04-02T09:06:22.617Z,61.00
2018-04-02T09:08:49.202Z,61.00
2018-04-02T09:11:15.794Z,61.00
2018-04-02T09:13:42.336Z,61.10
2018-04-02T09:16:08.917Z,59.40
2018-04-02T09:18:35.869Z,59.60
2018-04-02T09:21:02.409Z,59.60
2018-04-02T09:23:29.009Z,58.40
2018-04-02T09:25:55.641Z,58.70
2018-04-02T09:28:22.598Z,58.70
2018-04-02T09:30:49.173Z,58.70
2018-04-02T09:33:15.799Z,57.70
2018-04-02T09:35:42.365Z,57.80
2018-04-02T09:38:08.933Z,57.70
2018-04-02T09:40:35.502Z,57.50
2018-04-02T09:43:02.430Z,56.30
2018-04-02T09:45:29.009Z,56.30
2018-04-02T09:47:55.970Z,56.60
2018-04-02T09:50:22.903Z,56.30
2018-04-02T09:52:49.896Z,57.00
2018-04-02T09:55:16.890Z,57.50
2018-04-02T09:57:43.429Z,57.50
2018-04-02T10:02:44.638Z,58.50
2018-04-02T10:05:11.318Z,58.50
2018-04-02T10:07:37.921Z,58.00
2018-04-02T10:10:04.537Z,57.10
2018-04-02T10:12:31.064Z,56.70
2018-04-02T10:14:58.170Z,57.70
2018-04-02T10:17:24.740Z,57.70
2018-04-02T10:19:51.446Z,54.30
2018-04-02T10:22:18.050Z,54.40
2018-04-02T10:24:44.713Z,54.90
2018-04-02T10:27:11.290Z,52.90
2018-04-02T10:29:37.883Z,54.00
2018-04-02T10:32:04.429Z,54.50
2018-04-02T10:34:32.165Z,56.50
2018-04-02T10:36:58.749Z,54.30
2018-04-02T10:39:25.563Z,54.40
2018-04-02T10:41:52.210Z,54.10
2018-04-02T10:44:18.822Z,54.10
2018-04-02T10:46:45.416Z,53.40
2018-04-02T10:49:12.042Z,53.30
2018-04-02T10:51:39.013Z,53.20
2018-04-02T10:54:05.563Z,53.20
2018-04-02T10:56:32.104Z,54.00
2018-04-02T10:58:59.057Z,53.20
2018-04-02T11:01:25.978Z,52.10
2018-04-02T11:03:52.554Z,52.10
2018-04-02T11:06:19.614Z,52.40
2018-04-02T11:08:46.559Z,52.00
2018-04-02T11:11:13.105Z,52.00
2018-04-02T11:13:39.697Z,51.90
2018-04-02T11:16:06.277Z,51.60
2018-04-02T11:18:32.812Z,49.90
2018-04-02T11:20:59.442Z,49.00
2018-04-02T11:23:26.030Z,49.00
2018-04-02T11:25:52.614Z,49.90
2018-04-02T11:28:19.522Z,50.30
2018-04-02T11:30:46.114Z,50.30
2018-04-02T11:33:13.069Z,50.70
2018-04-02T11:35:39.994Z,49.20
2018-04-02T11:38:06.642Z,49.20
2018-04-02T11:40:34.076Z,49.80
2018-04-02T11:43:00.943Z,50.30
2018-04-02T11:45:27.518Z,50.40
2018-04-02T11:47:54.074Z,49.10
2018-04-02T11:50:20.667Z,48.70
2018-04-02T11:52:47.201Z,48.70
2018-04-02T11:55:13.862Z,47.40
2018-04-02T11:57:40.413Z,47.90
2018-04-02T12:00:07.021Z,49.30
2018-04-02T12:02:33.549Z,49.10
2018-04-02T12:05:00.083Z,47.30
2018-04-02T12:07:26.654Z,48.20
2018-04-02T12:09:53.185Z,48.30
2018-04-02T12:12:19.766Z,47.00
2018-04-02T12:14:46.685Z,47.80
2018-04-02T12:17:13.672Z,48.10
2018-04-02T12:19:40.590Z,48.50
2018-04-02T12:22:07.167Z,48.50
2018-04-02T12:24:33.701Z,47.00
2018-04-02T12:27:00.278Z,46.40
2018-04-02T12:29:27.205Z,46.80
2018-04-02T12:31:53.790Z,46.80
2018-04-02T12:34:20.334Z,47.30
2018-04-02T12:36:47.282Z,45.00
2018-04-02T12:39:14.194Z,46.70
2018-04-02T12:41:40.766Z,46.70
2018-04-02T12:44:07.307Z,45.50
2018-04-02T12:46:33.886Z,47.30
2018-04-02T12:49:00.806Z,45.70
2018-04-02T12:51:27.390Z,45.70
2018-04-02T12:53:54.041Z,46.00
2018-04-02T12:56:20.990Z,44.70
2018-04-02T12:58:47.946Z,44.50
2018-04-02T13:01:14.857Z,44.80
2018-04-02T13:03:41.450Z,44.70
2018-04-02T13:06:08.381Z,43.30
2018-04-02T13:08:34.949Z,43.40
2018-04-02T13:11:01.882Z,43.10
2018-04-02T13:13:28.458Z,43.10
2018-04-02T13:15:55.374Z,42.50
2018-04-02T13:18:21.985Z,42.50
2018-04-02T13:20:48.556Z,43.90
2018-04-02T13:23:15.126Z,43.00
2018-04-02T13:25:41.670Z,43.10
2018-04-02T13:28:08.245Z,41.70
2018-04-02T13:30:35.159Z,41.20
2018-04-02T13:33:02.152Z,41.20
2018-04-02T13:35:29.074Z,43.30
2018-04-02T13:37:55.703Z,43.30
2018-04-02T13:40:22.266Z,42.30
2018-04-02T13:42:48.806Z,40.90
2018-04-02T13:45:15.386Z,41.20
2018-04-02T13:47:41.930Z,41.10
2018-04-02T13:50:08.506Z,41.60
2018-04-02T13:52:35.121Z,41.60
2018-04-02T13:55:01.736Z,41.30
2018-04-02T13:57:28.274Z,42.90
2018-04-02T13:59:54.846Z,42.00
2018-04-02T14:02:21.389Z,41.60
2018-04-02T14:04:47.978Z,40.80
2018-04-02T14:07:14.527Z,42.70
2018-04-02T14:09:41.516Z,43.60
2018-04-02T14:12:08.049Z,43.60
2018-04-02T14:14:34.621Z,43.50
2018-04-02T14:17:01.158Z,42.70
2018-04-02T14:19:27.690Z,42.60
2018-04-02T14:21:54.633Z,42.00
2018-04-02T14:24:21.550Z,43.30
2018-04-02T14:26:48.150Z,43.30
2018-04-02T14:29:14.758Z,43.10
2018-04-02T14:31:41.337Z,42.10
2018-04-02T14:34:08.269Z,42.90
2018-04-02T14:36:34.836Z,42.90
2018-04-02T14:39:01.750Z,42.00
2018-04-02T14:41:28.341Z,42.00
2018-04-02T14:43:55.246Z,43.80
2018-04-02T14:46:21.826Z,43.80
2018-04-02T14:48:48.359Z,43.80
2018-04-02T14:51:14.937Z,45.30
2018-04-02T14:53:41.868Z,44.10
2018-04-02T14:56:08.486Z,44.10
2018-04-02T14:58:35.017Z,44.30
2018-04-02T15:01:01.609Z,44.50
2018-04-02T15:03:28.175Z,45.00
2018-04-02T15:05:54.736Z,45.30
2018-04-02T15:08:21.682Z,45.70
2018-04-02T15:10:48.586Z,44.50
2018-04-02T15:13:15.169Z,44.50
2018-04-02T15:15:41.714Z,44.50
2018-04-02T15:18:08.310Z,44.50
2018-04-02T15:20:34.846Z,44.40
2018-04-02T15:23:01.790Z,45.40
2018-04-02T15:25:28.702Z,45.20
2018-04-02T15:27:55.284Z,45.20
2018-04-02T15:30:21.818Z,45.20
2018-04-02T15:32:48.404Z,46.00
2018-04-02T15:35:14.972Z,45.40
2018-04-02T15:37:48.449Z,46.10
2018-04-02T15:40:15.391Z,45.90
2018-04-02T15:42:41.971Z,45.90
2018-04-02T15:45:08.502Z,45.20
2018-04-02T15:47:35.451Z,45.60
2018-04-02T15:50:02.456Z,45.70
2018-04-02T15:52:29.009Z,45.70
2018-04-02T15:54:55.621Z,46.80
2018-04-02T15:57:22.158Z,45.40
2018-04-02T15:59:49.130Z,46.20
2018-04-02T16:02:15.690Z,46.20
2018-04-02T16:04:42.278Z,47.80
2018-04-02T16:07:08.826Z,47.60
2018-04-02T16:09:35.405Z,48.10
2018-04-02T16:12:02.320Z,48.20
2018-04-02T16:14:28.894Z,48.20
2018-04-02T16:16:56.391Z,47.70
2018-04-02T16:19:22.969Z,48.30
2018-04-02T16:21:49.505Z,48.50
2018-04-02T16:24:16.094Z,49.00
2018-04-02T16:26:42.657Z,50.30
2018-04-02T16:29:09.605Z,49.90
2018-04-02T16:31:36.151Z,49.90
2018-04-02T16:34:03.106Z,50.70
2018-04-02T16:36:29.685Z,50.80
2018-04-02T16:38:56.242Z,50.20
2018-04-02T16:41:22.866Z,50.40
2018-04-02T16:43:49.817Z,49.50
2018-04-02T16:46:16.773Z,49.70
2018-04-02T16:48:43.673Z,49.80
2018-04-02T16:51:10.268Z,49.80
2018-04-02T16:53:36.919Z,50.00
2018-04-02T16:56:03.559Z,50.00
2018-04-02T16:58:30.138Z,50.20
2018-04-02T17:00:57.105Z,50.70
2018-04-02T17:03:23.685Z,50.70
2018-04-02T17:05:50.273Z,51.10
2018-04-02T17:08:16.866Z,51.60
2018-04-02T17:10:43.443Z,51.50
2018-04-02T17:13:09.991Z,51.60
2018-04-02T17:15:36.573Z,51.90
2018-04-02T17:18:03.503Z,52.40
2018-04-02T17:20:30.042Z,52.40
2018-04-02T17:22:56.644Z,52.70
2018-04-02T17:25:23.173Z,52.40
2018-04-02T17:27:49.754Z,52.30
2018-04-02T17:30:16.313Z,52.50
2018-04-02T17:32:42.891Z,51.90
2018-04-02T17:35:09.424Z,51.80
2018-04-02T17:37:36.013Z,50.90
2018-04-02T17:40:03.012Z,51.20
2018-04-02T17:42:29.673Z,51.20
2018-04-02T17:44:56.220Z,51.40
2018-04-02T17:47:22.789Z,51.60
2018-04-02T17:49:49.327Z,52.10
2018-04-02T17:52:16.026Z,52.10
2018-04-02T17:54:42.601Z,52.30
2018-04-02T17:57:09.173Z,52.50
2018-04-02T17:59:35.734Z,52.40
2018-04-02T18:02:02.333Z,52.80
2018-04-02T18:04:28.880Z,53.00
2018-04-02T18:06:55.422Z,53.00
2018-04-02T18:09:22.004Z,53.50
2018-04-02T18:11:48.542Z,53.80
2018-04-02T18:14:15.190Z,53.70
2018-04-02T18:16:41.722Z,54.40
2018-04-02T18:19:08.362Z,54.40
2018-04-02T18:21:35.017Z,54.70
2018-04-02T18:24:01.699Z,54.90
2018-04-02T18:26:28.239Z,55.30
2018-04-02T18:28:54.825Z,55.50
2018-04-02T18:31:21.737Z,56.10
2018-04-02T18:33:48.273Z,56.10
2018-04-02T18:36:14.881Z,56.40
2018-04-02T18:38:41.790Z,56.80
2018-04-02T18:41:08.382Z,56.80
2018-04-02T18:43:34.957Z,56.70
2018-04-02T18:46:01.541Z,57.00
2018-04-02T18:48:28.102Z,57.50
2018-04-02T18:50:54.698Z,57.60
2018-04-02T18:53:21.254Z,57.80
2018-04-02T18:55:47.869Z,57.50
2018-04-02T18:58:14.898Z,57.10
2018-04-02T19:00:41.485Z,57.10
2018-04-02T19:03:08.030Z,57.50
2018-04-02T19:05:34.632Z,57.60
2018-04-02T19:08:01.165Z,57.50
2018-04-02T19:10:27.750Z,57.10
2018-04-02T19:12:54.657Z,57.90
2018-04-02T19:15:21.306Z,57.90
2018-04-02T19:17:47.849Z,58.00
2018-04-02T19:20:14.390Z,58.00
2018-04-02T19:22:41.077Z,57.90
2018-04-02T19:25:07.698Z,58.00
2018-04-02T19:27:34.281Z,58.40
2018-04-02T19:30:00.893Z,58.40
2018-04-02T19:32:27.489Z,58.30
2018-04-02T19:34:54.035Z,58.40
2018-04-02T19:37:20.739Z,57.60
2018-04-02T19:39:47.277Z,58.20
2018-04-02T19:42:13.862Z,58.40
2018-04-02T19:44:40.508Z,58.60
2018-04-02T19:47:07.088Z,58.90
2018-04-02T19:49:34.133Z,58.00
2018-04-02T19:52:00.745Z,58.00
2018-04-02T19:54:27.330Z,58.20
2018-04-02T19:56:53.901Z,57.70
2018-04-02T19:59:20.806Z,58.00
2018-04-02T20:01:47.386Z,58.00
2018-04-02T20:04:13.947Z,57.70
2018-04-02T20:06:40.906Z,58.50
2018-04-02T20:09:07.828Z,58.60
2018-04-02T20:11:34.361Z,58.60
2018-04-02T20:14:00.925Z,58.80
2018-04-02T20:16:27.465Z,59.70
2018-04-02T20:18:54.051Z,60.50
2018-04-02T20:21:20.974Z,59.80
2018-04-02T20:23:47.546Z,59.80
2018-04-02T20:26:14.463Z,61.30
2018-04-02T20:28:41.039Z,61.30
2018-04-02T20:31:07.958Z,60.50
2018-04-02T20:33:34.533Z,60.50
2018-04-02T20:36:01.082Z,61.70
2018-04-02T20:38:27.656Z,62.60
2018-04-02T20:41:01.346Z,63.00
2018-04-02T20:43:27.928Z,63.40
2018-04-02T20:45:54.467Z,63.20
2018-04-02T20:48:21.061Z,63.00
2018-04-02T20:50:47.626Z,62.70
2018-04-02T20:53:14.210Z,61.70
2018-04-02T20:55:41.161Z,60.80
2018-04-02T20:58:07.706Z,60.80
2018-04-02T21:00:34.657Z,60.00
2018-04-02T21:03:01.569Z,60.70
2018-04-02T21:05:28.165Z,60.70
2018-04-02T21:07:55.097Z,61.10
2018-04-02T21:10:21.697Z,61.10
2018-04-02T21:12:48.241Z,60.60
2018-04-02T21:15:14.828Z,61.10
2018-04-02T21:17:41.361Z,61.10
2018-04-02T21:20:07.965Z,61.00
2018-04-02T21:22:34.522Z,61.00
2018-04-02T21:25:01.105Z,61.30
2018-04-02T21:27:27.642Z,61.40
2018-04-02T21:29:54.228Z,60.80
2018-04-02T21:32:20.772Z,62.20
2018-04-02T21:34:47.358Z,62.40
2018-04-02T21:37:13.892Z,62.50
2018-04-02T21:39:40.793Z,63.00
2018-04-02T21:42:07.366Z,63.00
2018-04-02T21:44:33.959Z,62.80
2018-04-02T21:47:00.557Z,62.50
2018-04-02T21:49:27.103Z,62.70
2018-04-02T21:51:53.705Z,62.60
2018-04-02T21:54:20.281Z,61.70
2018-04-02T21:56:46.909Z,61.80
2018-04-02T21:59:13.454Z,61.20
2018-04-02T22:01:40.042Z,62.50
2018-04-02T22:04:06.569Z,62.00
2018-04-02T22:06:45.258Z,62.00
2018-04-02T22:09:11.798Z,62.30
2018-04-02T22:11:38.754Z,62.70
2018-04-02T22:14:05.686Z,62.60
2018-04-02T22:16:32.271Z,62.70
2018-04-02T22:18:58.819Z,62.30
2018-04-02T22:21:25.446Z,61.80
2018-04-02T22:23:52.370Z,61.70
2018-04-02T22:26:18.962Z,61.70
2018-04-02T22:28:45.501Z,61.80
2018-04-02T22:31:12.433Z,62.20
2018-04-02T22:33:39.006Z,62.20
2018-04-02T22:36:05.969Z,63.00
2018-04-02T22:38:32.917Z,63.20
2018-04-02T22:40:59.885Z,63.70
2018-04-02T22:43:27.105Z,63.70
2018-04-02T22:45:53.658Z,64.00
2018-04-02T22:48:20.329Z,64.30
2018-04-02T22:50:47.305Z,65.00
2018-04-02T22:53:13.946Z,65.00
2018-04-02T22:55:40.494Z,66.40
2018-04-02T22:58:07.457Z,66.80
2018-04-02T23:00:34.106Z,66.80
2018-04-02T23:03:00.738Z,67.00
2018-04-02T23:05:27.649Z,66.50
2018-04-02T23:07:54.225Z,66.50
2018-04-02T23:10:20.778Z,66.40
2018-04-02T23:12:47.362Z,66.20
2018-04-02T23:15:13.899Z,66.30
2018-04-02T23:17:40.481Z,66.10
2018-04-02T23:20:07.022Z,66.00
2018-04-02T23:22:45.861Z,65.50
2018-04-02T23:25:12.401Z,65.30
2018-04-02T23:27:38.937Z,64.90
2018-04-02T23:30:12.603Z,65.00
2018-04-02T23:32:39.198Z,65.10
2018-04-02T23:35:05.778Z,65.10
2018-04-02T23:37:32.392Z,65.10
2018-04-02T23:39:58.998Z,65.10
2018-04-02T23:42:25.540Z,64.90
2018-04-02T23:44:52.130Z,65.10
2018-04-02T23:47:19.078Z,65.70
2018-04-02T23:49:46.027Z,65.30
2018-04-02T23:52:12.992Z,65.30
2018-04-02T23:54:39.961Z,65.40
2018-04-02T23:57:06.493Z,65.40
2018-04-02T23:59:33.392Z,65.30
